Time;durP1;ratioP1;P1;durP2;ratioP2;P2;SDS_P1;SDS_P2;PMS_P1;PMS_P2;Temp;Humidity;BMP_temperature;BMP_pressure;BME280_temperature;BME280_humidity;BME280_pressure;Samples;Min_cycle;Max_cycle;Signal;HPM_P1;HPM_P2
2023/03/03 00:00:34;;;;;;;126.13;67.65;;;204.90;2252.80;;;;;;5072372;28;20032;-81
2023/03/03 00:03:05;;;;;;;105.13;56.03;;;205.00;2252.80;;;;;;5071366;28;20036;-79
2023/03/03 00:05:32;;;;;;;92.78;50.90;;;204.90;2252.80;;;;;;5072272;28;20158;-79
2023/03/03 00:07:58;;;;;;;69.35;43.17;;;204.90;2252.80;;;;;;5071945;28;20423;-76
2023/03/03 00:10:24;;;;;;;65.03;39.50;;;204.80;2252.80;;;;;;5072215;28;20363;-76
2023/03/03 00:12:51;;;;;;;79.63;45.95;;;205.00;2252.80;;;;;;5072907;28;20028;-77
2023/03/03 00:15:20;;;;;;;66.47;41.25;;;205.00;2252.80;;;;;;5072101;28;20032;-77
2023/03/03 00:17:46;;;;;;;46.08;29.65;;;205.10;2252.80;;;;;;5073572;28;20078;-80
2023/03/03 00:20:28;;;;;;;45.10;30.55;;;204.90;2252.80;;;;;;5067479;28;20067;-81
2023/03/03 00:22:54;;;;;;;65.75;40.17;;;204.90;2252.80;;;;;;5053948;28;20025;-78
2023/03/03 00:25:27;;;;;;;70.07;44.30;;;205.00;2252.80;;;;;;5052437;28;20033;-81
2023/03/03 00:27:53;;;;;;;65.95;39.83;;;204.90;2252.80;;;;;;5052207;28;20025;-81
2023/03/03 00:30:26;;;;;;;47.60;30.83;;;204.90;2252.80;;;;;;5052189;28;20080;-82
2023/03/03 00:32:54;;;;;;;47.08;29.10;;;205.00;2252.80;;;;;;5053185;28;20029;-81
2023/03/03 00:35:34;;;;;;;47.40;28.83;;;205.00;2252.80;;;;;;5052032;28;20029;-80
2023/03/03 00:38:09;;;;;;;62.72;36.03;;;205.00;2252.80;;;;;;5052013;28;20021;-79
2023/03/03 00:40:36;;;;;;;63.22;37.42;;;180.10;2252.80;;;;;;5051717;28;20021;-79
2023/03/03 00:43:27;;;;;;;64.78;37.80;;;180.10;2252.80;;;;;;5052948;28;20534;-79
2023/03/03 00:45:55;;;;;;;62.50;37.78;;;204.80;2252.80;;;;;;5051786;28;20029;-80
2023/03/03 00:48:26;;;;;;;48.35;30.58;;;205.00;2252.80;;;;;;5051878;28;20428;-81
2023/03/03 00:50:55;;;;;;;47.10;31.20;;;204.90;2252.80;;;;;;5052059;28;20108;-81
2023/03/03 00:53:23;;;;;;;38.35;22.83;;;204.90;2252.80;;;;;;5051725;28;20031;-80
2023/03/03 00:55:50;;;;;;;36.22;22.08;;;204.90;2252.80;;;;;;5052026;28;20111;-80
2023/03/03 00:58:17;;;;;;;32.58;20.35;;;204.90;2252.80;;;;;;5059083;28;20074;-80
2023/03/03 01:00:43;;;;;;;29.77;19.73;;;205.20;2252.80;;;;;;5075299;28;20024;-80
2023/03/03 01:03:14;;;;;;;30.77;20.90;;;204.90;2252.80;;;;;;5074558;28;20020;-81
2023/03/03 01:05:39;;;;;;;28.17;19.42;;;204.90;2252.80;;;;;;5075589;28;20071;-82
2023/03/03 01:08:05;;;;;;;29.75;20.05;;;204.90;2252.80;;;;;;5074994;28;20072;-79
2023/03/03 01:10:35;;;;;;;28.70;18.55;;;205.00;2252.80;;;;;;5077134;28;20489;-80
2023/03/03 01:13:00;;;;;;;32.28;20.73;;;205.10;2252.80;;;;;;5077046;28;20024;-80
2023/03/03 01:15:26;;;;;;;32.55;21.65;;;205.10;2252.80;;;;;;5075014;28;20431;-80
2023/03/03 01:17:53;;;;;;;28.35;20.08;;;205.10;2252.80;;;;;;5080833;28;20078;-80
2023/03/03 01:20:19;;;;;;;35.67;22.08;;;205.20;2252.80;;;;;;5099409;28;20025;-80
2023/03/03 01:22:44;;;;;;;43.70;27.20;;;205.10;2252.80;;;;;;5090658;28;20163;-80
2023/03/03 01:25:10;;;;;;;58.15;36.65;;;204.90;2252.80;;;;;;5091649;28;20076;-80
2023/03/03 01:27:36;;;;;;;57.22;36.17;;;204.80;2252.80;;;;;;5094616;28;20048;-83
2023/03/03 01:30:04;;;;;;;145.45;62.22;;;180.10;2252.80;;;;;;5077684;28;20033;-82
2023/03/03 01:32:30;;;;;;;99.90;56.20;;;180.00;2252.80;;;;;;5074990;28;20347;-81
2023/03/03 01:34:55;;;;;;;83.05;50.90;;;180.00;2252.80;;;;;;5075042;28;20055;-81
2023/03/03 01:37:21;;;;;;;71.60;46.22;;;180.10;2252.80;;;;;;5075050;28;20028;-81
2023/03/03 01:39:49;;;;;;;60.38;39.15;;;204.80;2252.80;;;;;;5074934;28;20041;-83
2023/03/03 01:42:15;;;;;;;55.20;36.90;;;180.10;2252.80;;;;;;5074634;28;20025;-81
2023/03/03 01:44:40;;;;;;;45.88;30.27;;;204.90;2252.80;;;;;;5075826;28;20031;-80
2023/03/03 01:47:11;;;;;;;39.55;29.52;;;204.90;2252.80;;;;;;5076127;28;20025;-81
2023/03/03 01:49:57;;;;;;;46.90;33.15;;;204.80;2252.80;;;;;;5074321;28;20511;-79
2023/03/03 01:52:45;;;;;;;48.33;32.03;;;204.90;2252.80;;;;;;5074755;28;20393;-79
2023/03/03 01:55:34;;;;;;;45.70;28.38;;;204.90;2252.80;;;;;;5075545;28;20103;-80
2023/03/03 01:58:19;;;;;;;46.53;28.60;;;204.90;2252.80;;;;;;5074261;28;20111;-80
2023/03/03 02:00:54;;;;;;;60.83;37.15;;;205.00;2252.80;;;;;;5074519;28;20469;-79
2023/03/03 02:03:21;;;;;;;63.28;37.80;;;204.90;2252.80;;;;;;5074302;28;20075;-79
2023/03/03 02:05:49;;;;;;;61.90;36.40;;;204.90;2252.80;;;;;;5075593;28;20025;-80
2023/03/03 02:08:18;;;;;;;60.53;35.60;;;204.80;2252.80;;;;;;5073650;28;20140;-81
2023/03/03 02:10:45;;;;;;;54.47;35.13;;;204.90;2252.80;;;;;;5075184;28;20378;-79
2023/03/03 02:13:12;;;;;;;54.10;32.05;;;204.80;2252.80;;;;;;5074265;28;20457;-79
2023/03/03 02:15:38;;;;;;;43.03;28.02;;;204.80;2252.80;;;;;;5074172;28;20028;-81
2023/03/03 02:18:09;;;;;;;41.83;26.42;;;204.80;2252.80;;;;;;5074804;28;20089;-81
2023/03/03 02:20:55;;;;;;;43.60;28.15;;;204.80;2252.80;;;;;;5074279;28;20036;-81
2023/03/03 02:23:41;;;;;;;39.67;26.13;;;204.80;2252.80;;;;;;5073595;28;20036;-80
2023/03/03 02:26:08;;;;;;;44.80;26.95;;;180.10;2252.80;;;;;;5075017;28;20454;-80
2023/03/03 02:28:35;;;;;;;43.97;28.58;;;204.80;2252.80;;;;;;5074080;28;20039;-79
2023/03/03 02:31:02;;;;;;;48.40;29.55;;;180.10;2252.80;;;;;;5073591;28;20043;-81
2023/03/03 02:33:28;;;;;;;50.50;33.45;;;180.10;2252.80;;;;;;5073851;28;20103;-79
2023/03/03 02:35:54;;;;;;;42.15;27.35;;;180.10;2252.80;;;;;;5075101;28;20374;-81
2023/03/03 02:38:23;;;;;;;42.85;26.45;;;204.80;2252.80;;;;;;5073487;28;20033;-81
2023/03/03 02:40:59;;;;;;;43.92;28.05;;;180.10;2252.80;;;;;;5073682;28;20416;-82
2023/03/03 02:43:32;;;;;;;40.55;28.17;;;180.10;2252.80;;;;;;5073912;28;20458;-82
2023/03/03 02:45:58;;;;;;;51.63;31.65;;;180.10;2252.80;;;;;;5073468;28;20531;-80
2023/03/03 02:48:23;;;;;;;48.08;30.25;;;180.10;2252.80;;;;;;5073339;28;20020;-81
2023/03/03 02:50:49;;;;;;;45.60;30.65;;;180.10;2252.80;;;;;;5062429;28;20386;-81
2023/03/03 02:53:15;;;;;;;43.22;28.48;;;204.80;2252.80;;;;;;5053111;28;20029;-81
2023/03/03 02:55:40;;;;;;;39.05;26.23;;;204.80;2252.80;;;;;;5052490;28;20044;-81
2023/03/03 02:58:06;;;;;;;41.35;24.05;;;180.10;2252.80;;;;;;5054608;28;20021;-81
2023/03/03 03:00:32;;;;;;;33.38;23.15;;;180.10;2252.80;;;;;;5053221;28;20119;-82
2023/03/03 03:02:58;;;;;;;38.00;23.17;;;180.10;2252.80;;;;;;5053484;28;20074;-82
2023/03/03 03:05:23;;;;;;;35.97;24.70;;;180.10;2252.80;;;;;;5053503;28;20029;-81
2023/03/03 03:07:49;;;;;;;37.20;24.38;;;180.00;2252.80;;;;;;5053139;28;20497;-81
2023/03/03 03:10:15;;;;;;;36.00;23.83;;;180.00;2252.80;;;;;;5053445;28;20319;-82
2023/03/03 03:12:41;;;;;;;37.90;24.88;;;179.90;2252.80;;;;;;5053548;28;20029;-81
2023/03/03 03:15:08;;;;;;;41.88;26.60;;;179.90;2252.80;;;;;;5053128;28;20021;-81
2023/03/03 03:17:36;;;;;;;39.55;26.27;;;179.80;2252.80;;;;;;5053459;28;20021;-81
2023/03/03 03:20:02;;;;;;;40.38;26.05;;;179.80;2252.80;;;;;;5052087;28;20035;-82
2023/03/03 03:22:28;;;;;;;47.80;29.48;;;179.90;2252.80;;;;;;5053463;28;20029;-81
2023/03/03 03:24:54;;;;;;;53.15;32.85;;;179.80;2252.80;;;;;;5053056;28;20439;-83
2023/03/03 03:27:19;;;;;;;48.97;32.33;;;179.80;2252.80;;;;;;5053082;28;20044;-81
2023/03/03 03:29:45;;;;;;;45.83;28.45;;;179.90;2252.80;;;;;;5053775;28;20033;-81
2023/03/03 03:32:11;;;;;;;46.20;30.13;;;179.90;2252.80;;;;;;5053636;28;20359;-80
2023/03/03 03:34:37;;;;;;;50.45;31.30;;;179.80;2252.80;;;;;;5052443;28;20373;-82
2023/03/03 03:37:03;;;;;;;49.33;31.42;;;179.90;2252.80;;;;;;5052666;28;20116;-81
2023/03/03 03:39:28;;;;;;;58.60;33.30;;;179.90;2252.80;;;;;;5052549;28;20041;-81
2023/03/03 03:41:54;;;;;;;42.40;28.02;;;179.70;2252.80;;;;;;5052434;28;20053;-82
2023/03/03 03:44:20;;;;;;;45.58;28.00;;;179.80;2252.80;;;;;;5053795;28;20108;-81
2023/03/03 03:46:46;;;;;;;36.08;25.02;;;179.80;2252.80;;;;;;5052610;28;20047;-82
2023/03/03 03:49:11;;;;;;;42.65;26.98;;;179.90;2252.80;;;;;;5052283;28;20036;-82
2023/03/03 03:51:40;;;;;;;42.35;28.33;;;179.80;2252.80;;;;;;5053778;28;20382;-81
2023/03/03 03:54:06;;;;;;;43.05;28.35;;;179.80;2252.80;;;;;;5052976;28;20028;-80
2023/03/03 03:56:31;;;;;;;42.95;27.42;;;179.90;2252.80;;;;;;5053498;28;20036;-82
2023/03/03 03:58:57;;;;;;;38.30;25.17;;;180.00;2252.80;;;;;;5053611;28;20064;-81
2023/03/03 04:01:24;;;;;;;47.28;28.42;;;180.00;2252.80;;;;;;5052513;28;20071;-80
2023/03/03 04:03:49;;;;;;;46.20;29.20;;;180.00;2252.80;;;;;;5052091;28;20025;-81
2023/03/03 04:06:15;;;;;;;57.03;32.67;;;179.90;2252.80;;;;;;5052255;28;20047;-83
2023/03/03 04:08:41;;;;;;;61.60;38.05;;;179.90;2252.80;;;;;;5051997;28;20053;-81
2023/03/03 04:11:07;;;;;;;54.28;32.33;;;179.90;2252.80;;;;;;5053325;28;20079;-81
2023/03/03 04:13:34;;;;;;;58.42;32.78;;;179.80;2252.80;;;;;;5052354;28;20029;-82
2023/03/03 04:16:00;;;;;;;62.63;37.13;;;179.80;2252.80;;;;;;5052162;28;20424;-82
2023/03/03 04:18:26;;;;;;;57.40;33.83;;;179.90;2252.80;;;;;;5052246;28;20033;-81
2023/03/03 04:20:53;;;;;;;54.40;33.97;;;179.90;2252.80;;;;;;5053693;28;20028;-82
2023/03/03 04:23:19;;;;;;;54.88;32.30;;;179.90;2252.80;;;;;;5053376;28;20111;-81
2023/03/03 04:25:47;;;;;;;43.10;27.83;;;179.90;2252.80;;;;;;5052226;28;20141;-82
2023/03/03 04:28:16;;;;;;;39.50;28.52;;;179.90;2252.80;;;;;;5053174;28;20458;-82
2023/03/03 04:30:43;;;;;;;42.80;26.95;;;179.80;2252.80;;;;;;5052368;28;20060;-82
2023/03/03 04:33:09;;;;;;;45.63;30.33;;;179.80;2252.80;;;;;;5057370;28;20525;-82
2023/03/03 04:35:34;;;;;;;55.05;32.75;;;179.80;2252.80;;;;;;5056222;28;20069;-79
2023/03/03 04:38:00;;;;;;;45.92;29.30;;;179.80;2252.80;;;;;;5055836;28;20471;-78
2023/03/03 04:40:26;;;;;;;60.20;33.25;;;179.80;2252.80;;;;;;5055884;28;20479;-78
2023/03/03 04:42:52;;;;;;;61.22;35.08;;;179.70;2252.80;;;;;;5056116;28;20025;-79
2023/03/03 04:45:18;;;;;;;63.08;36.38;;;179.60;2252.80;;;;;;5056912;28;20052;-81
2023/03/03 04:47:43;;;;;;;72.95;42.25;;;179.70;2252.80;;;;;;5056880;28;20029;-80
2023/03/03 04:50:10;;;;;;;65.93;42.38;;;179.60;2252.80;;;;;;5056575;28;20493;-80
2023/03/03 04:52:36;;;;;;;65.97;41.33;;;179.70;2252.80;;;;;;5054741;28;20032;-79
2023/03/03 04:55:02;;;;;;;59.42;38.08;;;179.80;2252.80;;;;;;5071492;28;20025;-79
2023/03/03 04:57:28;;;;;;;50.75;32.58;;;205.10;2252.80;;;;;;5055855;28;20025;-81
2023/03/03 04:59:55;;;;;;;53.97;31.77;;;179.80;2252.80;;;;;;5073591;28;20037;-81
2023/03/03 05:02:21;;;;;;;50.20;34.28;;;179.80;2252.80;;;;;;5075287;28;20687;-80
2023/03/03 05:04:46;;;;;;;51.28;32.03;;;179.80;2252.80;;;;;;5076198;28;20025;-81
2023/03/03 05:07:13;;;;;;;51.35;32.20;;;179.80;2252.80;;;;;;5075453;28;20454;-81
2023/03/03 05:09:38;;;;;;;48.63;30.83;;;179.70;2252.80;;;;;;5076697;28;20385;-78
2023/03/03 05:12:04;;;;;;;43.40;29.27;;;179.70;2252.80;;;;;;5076855;28;20040;-79
2023/03/03 05:14:30;;;;;;;47.30;29.08;;;179.70;2252.80;;;;;;5076661;28;20024;-80
2023/03/03 05:16:56;;;;;;;39.55;26.23;;;179.70;2252.80;;;;;;5075363;28;20020;-81
2023/03/03 05:19:23;;;;;;;42.08;26.85;;;179.70;2252.80;;;;;;5075005;28;20029;-79
2023/03/03 05:21:48;;;;;;;42.17;27.63;;;179.80;2252.80;;;;;;5075412;28;20162;-81
2023/03/03 05:24:14;;;;;;;39.47;27.50;;;179.70;2252.80;;;;;;5075285;28;20056;-80
2023/03/03 05:26:40;;;;;;;39.88;26.60;;;179.70;2252.80;;;;;;5076292;28;20545;-80
2023/03/03 05:29:07;;;;;;;39.55;26.23;;;179.70;2252.80;;;;;;5075312;28;20051;-81
2023/03/03 05:31:33;;;;;;;45.78;29.25;;;179.70;2252.80;;;;;;5075095;28;20074;-82
2023/03/03 05:33:59;;;;;;;45.72;29.15;;;179.70;2252.80;;;;;;5074855;28;20024;-81
2023/03/03 05:36:24;;;;;;;39.72;27.08;;;179.70;2252.80;;;;;;5075557;28;20028;-80
2023/03/03 05:38:51;;;;;;;52.92;36.38;;;179.70;2252.80;;;;;;5075041;28;20036;-80
2023/03/03 05:41:16;;;;;;;65.18;47.90;;;179.70;2252.80;;;;;;5074752;28;20060;-80
2023/03/03 05:43:42;;;;;;;48.25;36.53;;;179.70;2252.80;;;;;;5074127;28;20044;-81
2023/03/03 05:46:09;;;;;;;38.42;29.88;;;179.70;2252.80;;;;;;5075035;28;20030;-81
2023/03/03 05:48:35;;;;;;;41.78;27.90;;;179.70;2252.80;;;;;;5075775;28;20120;-78
2023/03/03 05:51:00;;;;;;;40.97;30.50;;;179.70;2252.80;;;;;;5074928;28;20131;-81
2023/03/03 05:53:27;;;;;;;43.88;32.65;;;179.60;2252.80;;;;;;5074871;28;20021;-81
2023/03/03 05:55:53;;;;;;;42.80;29.40;;;179.60;2252.80;;;;;;5074738;28;20033;-80
2023/03/03 05:58:19;;;;;;;51.30;39.08;;;179.60;2252.80;;;;;;5074262;28;20363;-82
2023/03/03 06:00:45;;;;;;;72.18;51.13;;;179.60;2252.80;;;;;;5074377;28;20169;-80
2023/03/03 06:03:11;;;;;;;56.15;39.33;;;179.60;2252.80;;;;;;5073682;28;20030;-83
2023/03/03 06:05:37;;;;;;;43.53;33.05;;;179.60;2252.80;;;;;;5074590;28;20512;-82
2023/03/03 06:08:03;;;;;;;42.45;27.77;;;179.70;2252.80;;;;;;5075593;28;20045;-81
2023/03/03 06:10:29;;;;;;;44.88;30.08;;;179.70;2252.80;;;;;;5074396;28;20031;-82
2023/03/03 06:12:54;;;;;;;91.13;54.17;;;179.70;2252.80;;;;;;5074446;28;20028;-82
2023/03/03 06:15:22;;;;;;;92.90;57.67;;;179.70;2252.80;;;;;;5073928;28;20116;-82
2023/03/03 06:17:48;;;;;;;75.93;49.70;;;179.70;2252.80;;;;;;5075306;28;20036;-81
2023/03/03 06:20:13;;;;;;;64.15;49.60;;;179.70;2252.80;;;;;;5074428;28;20037;-82
2023/03/03 06:22:39;;;;;;;51.90;38.83;;;179.70;2252.80;;;;;;5074177;28;20028;-83
2023/03/03 06:25:05;;;;;;;46.97;32.53;;;179.70;2252.80;;;;;;5075486;28;20028;-79
2023/03/03 06:27:31;;;;;;;54.72;39.13;;;179.70;2252.80;;;;;;5069822;28;20561;-80
2023/03/03 06:29:57;;;;;;;55.03;40.45;;;179.70;2252.80;;;;;;5052828;28;20039;-79
2023/03/03 06:32:22;;;;;;;69.97;46.35;;;179.70;2252.80;;;;;;5052775;28;20021;-81
2023/03/03 06:34:48;;;;;;;68.65;47.72;;;179.80;2252.80;;;;;;5053677;28;20033;-81
2023/03/03 06:37:14;;;;;;;96.45;64.88;;;179.70;2252.80;;;;;;5054666;28;20423;-80
2023/03/03 06:39:40;;;;;;;82.70;57.92;;;179.70;2252.80;;;;;;5053835;28;20418;-81
2023/03/03 06:42:06;;;;;;;75.78;51.13;;;179.80;2252.80;;;;;;5053953;28;20036;-81
2023/03/03 06:44:31;;;;;;;76.38;50.38;;;179.70;2252.80;;;;;;5053473;28;20159;-80
2023/03/03 06:46:57;;;;;;;89.25;59.67;;;179.80;2252.80;;;;;;5053383;28;20104;-80
2023/03/03 06:49:23;;;;;;;83.93;54.30;;;179.80;2252.80;;;;;;5053587;28;20035;-79
2023/03/03 06:51:49;;;;;;;93.22;62.63;;;179.80;2252.80;;;;;;5053338;28;20029;-82
2023/03/03 06:54:18;;;;;;;77.82;53.80;;;179.80;2252.80;;;;;;5053650;28;20029;-81
2023/03/03 06:56:44;;;;;;;65.53;44.28;;;179.90;2252.80;;;;;;5054557;28;20025;-79
2023/03/03 06:59:14;;;;;;;68.30;45.20;;;179.80;2252.80;;;;;;5067034;28;20078;-81
2023/03/03 07:01:41;;;;;;;70.30;49.70;;;179.80;2252.80;;;;;;5073249;28;20029;-82
2023/03/03 07:04:16;;;;;;;79.50;58.20;;;180.10;2252.80;;;;;;5073913;28;20033;-81
2023/03/03 07:06:42;;;;;;;75.93;53.80;;;179.90;2252.80;;;;;;5073063;28;20035;-82
2023/03/03 07:09:25;;;;;;;86.60;58.17;;;179.60;2252.80;;;;;;5073123;28;20401;-81
2023/03/03 07:12:12;;;;;;;72.57;48.10;;;179.60;2252.80;;;;;;5073068;28;20420;-79
2023/03/03 07:14:43;;;;;;;119.47;72.13;;;179.50;2252.80;;;;;;5073195;28;20428;-81
2023/03/03 07:17:15;;;;;;;167.57;104.10;;;179.50;2252.80;;;;;;5073198;28;20020;-81
2023/03/03 07:19:42;;;;;;;96.25;71.40;;;179.70;2252.80;;;;;;5074281;28;20040;-80
2023/03/03 07:22:16;;;;;;;98.85;72.90;;;179.50;2252.80;;;;;;5073977;28;20481;-80
2023/03/03 07:24:44;;;;;;;94.78;69.38;;;179.60;2252.80;;;;;;5074974;28;20104;-80
2023/03/03 07:27:37;;;;;;;156.00;111.00;;;179.50;2252.80;;;;;;5077434;28;20032;-81
2023/03/03 07:30:26;;;;;;;210.88;142.52;;;179.50;2252.80;;;;;;5093838;28;20040;-81
2023/03/03 07:32:55;;;;;;;133.23;96.57;;;179.60;2252.80;;;;;;5094457;28;20021;-80
2023/03/03 07:35:43;;;;;;;104.68;74.82;;;179.70;2252.80;;;;;;5078124;28;20025;-82
2023/03/03 07:38:33;;;;;;;101.72;71.93;;;179.70;2252.80;;;;;;5073743;28;20138;-81
2023/03/03 07:41:02;;;;;;;118.90;87.18;;;179.70;2252.80;;;;;;5075031;28;20466;-80
2023/03/03 07:43:36;;;;;;;152.93;111.50;;;179.70;2252.80;;;;;;5072571;28;20055;-78
2023/03/03 07:46:28;;;;;;;107.38;78.22;;;179.70;2252.80;;;;;;5073483;28;20064;-78
2023/03/03 07:48:56;;;;;;;80.93;60.10;;;179.80;2252.80;;;;;;5071738;28;20024;-76
2023/03/03 07:51:27;;;;;;;62.97;46.35;;;179.90;2252.80;;;;;;5071598;28;20082;-79
2023/03/03 07:54:27;;;;;;;91.93;60.05;;;179.90;2252.80;;;;;;5071846;28;20020;-77
2023/03/03 07:57:15;;;;;;;119.03;80.82;;;179.90;2252.80;;;;;;5066772;28;20481;-79
2023/03/03 07:59:49;;;;;;;72.68;50.40;;;180.00;2252.80;;;;;;5060578;28;20486;-80
2023/03/03 08:02:44;;;;;;;57.13;43.25;;;179.90;2252.80;;;;;;5071921;28;20052;-80
2023/03/03 08:05:19;;;;;;;53.35;42.88;;;179.90;2252.80;;;;;;5072995;28;20046;-79
2023/03/03 08:07:45;;;;;;;48.72;37.80;;;180.00;2252.80;;;;;;5071664;28;20052;-77
2023/03/03 08:10:49;;;;;;;48.53;37.30;;;179.90;2252.80;;;;;;5072469;28;20355;-78
2023/03/03 08:13:26;;;;;;;54.65;38.78;;;179.90;2252.80;;;;;;5054083;28;20086;-78
2023/03/03 08:16:00;;;;;;;57.53;40.88;;;180.00;2252.80;;;;;;5073530;28;20503;-78
2023/03/03 08:18:36;;;;;;;46.10;35.42;;;180.00;2252.80;;;;;;5072968;28;20424;-78
2023/03/03 08:21:07;;;;;;;65.00;45.97;;;180.00;2252.80;;;;;;5071900;28;20059;-79
2023/03/03 08:23:32;;;;;;;97.13;70.18;;;179.90;2252.80;;;;;;5073682;28;20033;-78
2023/03/03 08:25:58;;;;;;;63.10;44.40;;;179.90;2252.80;;;;;;5072994;28;20025;-78
2023/03/03 08:28:24;;;;;;;54.50;41.67;;;179.90;2252.80;;;;;;5071762;28;20078;-75
2023/03/03 08:30:50;;;;;;;55.90;40.53;;;179.90;2252.80;;;;;;5073068;28;20078;-79
2023/03/03 08:33:17;;;;;;;47.35;36.33;;;179.90;2252.80;;;;;;5072068;28;20025;-79
2023/03/03 08:35:43;;;;;;;47.30;34.47;;;179.90;2252.80;;;;;;5071817;28;20058;-78
2023/03/03 08:38:10;;;;;;;57.03;40.28;;;204.80;2252.80;;;;;;5072059;28;20385;-79
2023/03/03 08:40:36;;;;;;;48.20;33.25;;;180.10;2252.80;;;;;;5073116;28;20042;-81
2023/03/03 08:43:03;;;;;;;47.63;35.42;;;180.10;2252.80;;;;;;5071615;28;20028;-78
2023/03/03 08:45:29;;;;;;;52.13;36.88;;;204.80;2252.80;;;;;;5071897;28;20056;-79
2023/03/03 08:47:55;;;;;;;47.90;34.38;;;204.80;2252.80;;;;;;5073238;28;20075;-79
2023/03/03 08:50:21;;;;;;;54.05;37.00;;;204.80;2252.80;;;;;;5064545;28;20536;-78
2023/03/03 08:52:47;;;;;;;49.17;32.88;;;204.80;2252.80;;;;;;5052238;28;20040;-78
2023/03/03 08:55:13;;;;;;;53.75;36.55;;;204.80;2252.80;;;;;;5049444;28;20025;-79
2023/03/03 08:57:39;;;;;;;47.60;34.05;;;204.80;2252.80;;;;;;5052458;28;20105;-76
2023/03/03 09:00:07;;;;;;;48.55;35.08;;;204.90;2252.80;;;;;;5051102;28;20128;-76
2023/03/03 09:02:33;;;;;;;44.72;34.35;;;205.00;2252.80;;;;;;5051566;28;20025;-76
2023/03/03 09:04:59;;;;;;;44.45;33.38;;;205.00;2252.80;;;;;;5051331;28;20470;-75
2023/03/03 09:07:25;;;;;;;38.20;28.20;;;204.90;2252.80;;;;;;5051328;28;20452;-76
2023/03/03 09:09:51;;;;;;;24.65;18.63;;;204.90;2252.80;;;;;;5051209;28;20063;-76
2023/03/03 09:12:21;;;;;;;32.00;23.20;;;180.00;2252.80;;;;;;5051625;28;20116;-76
2023/03/03 09:14:47;;;;;;;23.25;17.33;;;204.80;2252.80;;;;;;5051473;28;20025;-75
2023/03/03 09:17:29;;;;;;;22.30;16.38;;;204.80;2252.80;;;;;;5051228;28;20166;-76
2023/03/03 09:20:10;;;;;;;21.35;15.50;;;180.10;2252.80;;;;;;5055078;28;20037;-77
2023/03/03 09:22:37;;;;;;;27.42;19.70;;;180.00;2252.80;;;;;;5055218;28;20501;-76
2023/03/03 09:25:22;;;;;;;37.65;30.70;;;204.90;2252.80;;;;;;5054790;28;20025;-76
2023/03/03 09:27:47;;;;;;;39.50;28.98;;;205.00;2252.80;;;;;;5055120;28;20029;-77
2023/03/03 09:30:25;;;;;;;39.00;29.13;;;205.10;2252.80;;;;;;5054912;28;20371;-77
2023/03/03 09:32:52;;;;;;;32.17;24.23;;;205.10;2252.80;;;;;;5054746;28;20028;-78
2023/03/03 09:35:39;;;;;;;31.50;23.35;;;205.10;2252.80;;;;;;5054699;28;20026;-77
2023/03/03 09:38:28;;;;;;;26.40;20.30;;;204.90;2252.80;;;;;;5056242;28;20048;-76
2023/03/03 09:41:14;;;;;;;28.42;19.60;;;204.80;2252.80;;;;;;5052774;28;20513;-76
2023/03/03 09:43:40;;;;;;;23.23;17.35;;;205.00;2252.80;;;;;;5054899;28;20364;-77
2023/03/03 09:46:18;;;;;;;25.40;18.77;;;204.90;2252.80;;;;;;5054287;28;20029;-76
2023/03/03 09:49:03;;;;;;;30.35;21.30;;;205.10;2252.80;;;;;;5054562;28;20124;-77
2023/03/03 09:51:51;;;;;;;87.97;63.05;;;205.20;2252.80;;;;;;5054698;28;20440;-76
2023/03/03 09:54:52;;;;;;;49.67;36.20;;;205.20;2252.80;;;;;;5054539;28;20024;-77
2023/03/03 09:57:48;;;;;;;33.80;23.67;;;205.20;2252.80;;;;;;5041684;28;20466;-77
2023/03/03 10:00:25;;;;;;;36.20;25.60;;;205.40;2252.80;;;;;;5054232;28;20378;-77
2023/03/03 10:02:57;;;;;;;34.13;25.10;;;205.40;2252.80;;;;;;5054491;28;20025;-76
2023/03/03 10:05:36;;;;;;;29.67;23.20;;;205.50;2252.80;;;;;;5054514;28;20048;-77
2023/03/03 10:08:25;;;;;;;34.40;26.33;;;205.60;2252.80;;;;;;5055339;28;20049;-77
2023/03/03 10:11:10;;;;;;;47.70;39.28;;;205.60;2252.80;;;;;;5055273;28;20017;-77
2023/03/03 10:13:42;;;;;;;58.75;46.60;;;205.70;2252.80;;;;;;5053945;28;20124;-76
2023/03/03 10:16:36;;;;;;;52.20;39.53;;;205.70;2252.80;;;;;;5054229;28;20025;-76
2023/03/03 10:19:12;;;;;;;40.67;30.23;;;205.70;2252.80;;;;;;5053994;28;20037;-77
2023/03/03 10:21:54;;;;;;;36.42;27.75;;;205.60;2252.80;;;;;;5053794;28;20140;-76
2023/03/03 10:24:30;;;;;;;46.42;32.25;;;205.70;2252.80;;;;;;5054039;28;20029;-77
2023/03/03 10:26:56;;;;;;;51.25;35.25;;;230.40;2252.80;;;;;;5053763;28;20059;-78
2023/03/03 10:29:22;;;;;;;38.70;28.83;;;230.40;2252.80;;;;;;5053583;28;20378;-77
2023/03/03 10:32:14;;;;;;;49.42;34.60;;;230.40;2252.80;;;;;;5054736;28;20037;-78
2023/03/03 10:34:40;;;;;;;58.58;39.17;;;230.40;2252.80;;;;;;5054931;28;20063;-78
2023/03/03 10:37:18;;;;;;;42.58;30.67;;;230.40;2252.80;;;;;;5054029;28;20461;-79
2023/03/03 10:40:02;;;;;;;29.67;21.05;;;230.40;2252.80;;;;;;5053755;28;20412;-79
2023/03/03 10:43:10;;;;;;;38.15;26.42;;;205.70;2252.80;;;;;;5053852;28;20033;-78
2023/03/03 10:46:14;;;;;;;42.17;30.65;;;205.70;2252.80;;;;;;5057859;28;20032;-79
2023/03/03 10:49:04;;;;;;;44.10;31.25;;;205.70;2252.80;;;;;;5053874;28;20167;-79
2023/03/03 10:51:37;;;;;;;54.47;37.05;;;205.70;2252.80;;;;;;5054615;28;20119;-76
2023/03/03 10:54:05;;;;;;;37.33;28.23;;;205.70;2252.80;;;;;;5056146;28;20166;-78
2023/03/03 10:56:43;;;;;;;41.97;29.73;;;205.70;2252.80;;;;;;5054731;28;20028;-79
2023/03/03 10:59:23;;;;;;;39.00;28.60;;;205.70;2252.80;;;;;;5055598;28;20054;-78
2023/03/03 11:02:00;;;;;;;49.50;37.15;;;205.70;2252.80;;;;;;5053181;28;20044;-78
2023/03/03 11:04:48;;;;;;;65.18;40.00;;;205.60;2252.80;;;;;;5053199;28;20120;-77
2023/03/03 11:07:26;;;;;;;60.55;39.33;;;205.60;2252.80;;;;;;5053929;28;20114;-78
2023/03/03 11:10:10;;;;;;;106.55;65.57;;;205.70;2252.80;;;;;;5052976;28;20120;-80
2023/03/03 11:12:46;;;;;;;102.25;60.60;;;205.70;2252.80;;;;;;5054319;28;20537;-80
2023/03/03 11:15:35;;;;;;;81.25;50.10;;;205.70;2252.80;;;;;;5053392;28;20021;-82
2023/03/03 11:18:05;;;;;;;66.70;41.88;;;230.40;2252.80;;;;;;5047126;28;20069;-80
2023/03/03 11:20:48;;;;;;;59.20;38.75;;;230.50;2252.80;;;;;;5053323;28;20039;-85
2023/03/03 11:23:51;;;;;;;53.70;33.97;;;230.40;2252.80;;;;;;5054543;28;20087;-83
2023/03/03 11:26:40;;;;;;;57.80;35.80;;;230.40;2252.80;;;;;;5052300;28;20114;-83
2023/03/03 11:29:19;;;;;;;44.25;31.17;;;230.50;2252.80;;;;;;5052371;28;20186;-82
2023/03/03 11:31:54;;;;;;;45.63;28.98;;;230.50;2252.80;;;;;;5052862;28;20025;-82
2023/03/03 11:34:57;;;;;;;49.90;32.95;;;230.50;2252.80;;;;;;5052733;28;20025;-82
2023/03/03 11:37:26;;;;;;;;;;;230.40;2252.80;;;;;;5052633;28;20031;-81
2023/03/03 11:39:55;;;;;;;52.65;35.78;;;230.40;2252.80;;;;;;5052558;28;19920;-80
2023/03/03 11:42:45;;;;;;;42.75;32.88;;;230.40;2252.80;;;;;;5052830;28;20654;-81
2023/03/03 11:45:18;;;;;;;33.83;23.42;;;230.40;2252.80;;;;;;5052242;28;20036;-82
2023/03/03 11:48:17;;;;;;;30.92;23.33;;;230.40;2252.80;;;;;;5052713;28;20445;-83
2023/03/03 11:50:43;;;;;;;37.78;29.10;;;230.40;2252.80;;;;;;5053696;28;20123;-82
2023/03/03 11:53:54;;;;;;;43.60;31.38;;;230.50;2252.80;;;;;;5072626;28;20513;-81
2023/03/03 11:56:44;;;;;;;38.50;26.77;;;230.50;2252.80;;;;;;5055833;28;20044;-82
2023/03/03 11:59:16;;;;;;;40.20;27.85;;;230.60;2252.80;;;;;;5064927;28;20047;-78
2023/03/03 12:01:56;;;;;;;35.60;21.65;;;230.50;2252.80;;;;;;5071739;28;20102;-82
2023/03/03 12:04:46;;;;;;;25.05;18.17;;;230.60;2252.80;;;;;;5071071;28;20059;-80
2023/03/03 12:07:15;;;;;;;32.08;21.25;;;230.50;2252.80;;;;;;5071232;28;20048;-83
2023/03/03 12:09:52;;;;;;;40.67;29.63;;;230.50;2252.80;;;;;;5072175;28;20028;-81
2023/03/03 12:12:24;;;;;;;43.70;28.35;;;230.50;2252.80;;;;;;5072265;28;20051;-80
2023/03/03 12:15:01;;;;;;;43.40;29.52;;;230.50;2252.80;;;;;;5073519;28;20044;-83
2023/03/03 12:17:42;;;;;;;45.63;29.92;;;230.50;2252.80;;;;;;5071517;28;20032;-83
2023/03/03 12:20:24;;;;;;;32.42;24.13;;;230.60;2252.80;;;;;;5072026;28;20111;-82